Wednesday, November 22, 2017, 12:57 PM GMT
Back to Local

CYWA, Petawawa, Ont.

Location: , , Canada Lat: 45.95
Local Time: 12:57 PM GMT (12:57 GMT) Lon: -77.317
Time Zone: GMT Elev: 426 ft

Show me the last for .
Show Coded

Time T Td Feel RH Dir Speed Gust Alt SLP Vis Weather Sky Remarks
2017-11-22 12:00 27 18 15 68 340° 14 - 30.04 30.06 12 BKN019 OVC040 None
2017-11-22 11:50 27 18 15 68 330° 14 - 30.04 30.06 9 BKN019 OVC040 None
2017-11-22 11:00 27 19 13 73 310° 14 20 30.00 30.02 9 -SN OVC019 None
2017-11-22 10:00 30 21 18 68 300° 13 18 29.95 29.97 9 None
2017-11-22 09:00 32 25 22 74 320° 15 - 29.92 29.93 9 None
2017-11-22 08:00 34 27 25 74 320° 13 - 29.89 29.91 9 OVC030 None
2017-11-22 07:00 36 25 32 64 280° 5 - 29.86 29.88 9 FEW032 BKN043 None
2017-11-22 06:00 37 27 33 64 280° 6 - 29.83 29.85 9 OVC039 OVC058 None
2017-11-22 05:00 36 27 33 69 280° 3 - 29.82 29.83 9 OVC035 None
2017-11-22 04:00 37 27 32 64 270° 7 - 29.80 29.82 9 None
2017-11-22 03:00 39 27 33 60 260° 9 - 29.79 29.80 9 None
2017-11-22 02:00 39 32 33 75 270° 9 - 29.77 29.78 9 OVC040 None
2017-11-22 01:34 39 36 36 86 250° 5 - 29.75 - 9 FEW020 BKN055 None
2017-11-22 01:30 39 36 37 86 250° 3 - 29.75 - 9 BKN020 None
2017-11-22 01:00 41 37 38 86 260° 5 - 29.74 29.76 7 -RA OVC024 None
2017-11-22 00:50 39 36 34 86 290° 8 - 29.74 29.76 10 -SHRA OVC025 None
2017-11-22 00:30 43 34 37 70 280° 10 - 29.72 29.74 15 -SHRA OVC030 None
2017-11-22 00:00 43 32 41 65 230° 3 - 29.70 29.72 15 OVC035 None
2017-11-21 23:00 43 32 38 65 220° 8 - 29.66 29.68 15 OVC090 None
2017-11-21 22:00 43 32 39 65 190° 6 - 29.65 29.67 15 FEW040 OVC090 None
2017-11-21 21:00 43 32 40 65 210° 5 - 29.64 29.66 15 OVC040 None
2017-11-21 20:00 45 32 41 61 220° 6 - 29.61 29.62 15 OVC040 None
2017-11-21 19:00 43 34 41 70 210° 3 - 29.60 29.61 15 OVC035 None
2017-11-21 18:00 43 34 39 70 210° 7 - 29.59 29.60 15 OVC035 None
2017-11-21 17:00 41 34 37 75 200° 6 - 29.58 29.60 15 SCT035 BKN160 BKN220 None
2017-11-21 16:00 41 34 36 75 150° 8 - 29.59 29.61 15 FEW015 SCT160 BKN220 None
2017-11-21 15:00 37 34 31 86 130° 9 - 29.59 29.61 15 FEW030 BKN160 None
2017-11-21 14:00 36 32 28 86 130° 10 - 29.60 29.62 15 SCT030 BKN160 None
2017-11-21 13:00 34 30 26 86 130° 9 - 29.60 29.63 9 FEW005 BKN030 BKN160 None

Support USWX by starting your Amazon purchase here.